Time;durP1;ratioP1;P1;durP2;ratioP2;P2;SDS_P1;SDS_P2;PMS_P1;PMS_P2;Temp;Humidity;BMP_temperature;BMP_pressure;BME280_temperature;BME280_humidity;BME280_pressure;Samples;Min_cycle;Max_cycle;Signal;HPM_P1;HPM_P2
2022/08/14 00:00:39;;;;;;;3.35;1.85;;;21.60;59.40;;;;;;6126080;23;20005;-67
2022/08/14 00:03:05;;;;;;;3.00;1.90;;;21.60;59.40;;;;;;6126262;23;20005;-68
2022/08/14 00:05:30;;;;;;;3.05;1.80;;;21.50;59.30;;;;;;6125778;23;20021;-66
2022/08/14 00:07:56;;;;;;;2.58;1.70;;;21.50;59.00;;;;;;6126388;23;20077;-67
2022/08/14 00:10:22;;;;;;;3.60;1.58;;;21.50;58.90;;;;;;6125924;23;20065;-67
2022/08/14 00:12:51;;;;;;;3.50;1.70;;;21.50;59.00;;;;;;6125909;23;20460;-67
2022/08/14 00:15:33;;;;;;;2.25;1.88;;;21.50;59.10;;;;;;6125722;23;20009;-66
2022/08/14 00:17:59;;;;;;;5.50;1.70;;;21.40;59.10;;;;;;6126258;23;20049;-67
2022/08/14 00:20:29;;;;;;;3.30;2.05;;;21.40;59.30;;;;;;6125918;23;20002;-67
2022/08/14 00:22:55;;;;;;;2.35;1.65;;;21.40;59.40;;;;;;6126128;23;20538;-66
2022/08/14 00:25:20;;;;;;;6.95;1.70;;;21.40;59.30;;;;;;6125951;23;20013;-68
2022/08/14 00:27:46;;;;;;;1.90;1.60;;;21.40;59.30;;;;;;6126284;23;20425;-67
2022/08/14 00:30:13;;;;;;;4.30;1.60;;;21.40;59.40;;;;;;6126342;23;20018;-67
2022/08/14 00:32:39;;;;;;;2.50;1.80;;;21.40;59.00;;;;;;6126100;23;20072;-65
2022/08/14 00:35:06;;;;;;;2.33;1.60;;;21.40;58.80;;;;;;6125739;23;20329;-66
2022/08/14 00:37:32;;;;;;;3.80;1.55;;;21.40;58.90;;;;;;6125891;23;20005;-67
2022/08/14 00:39:59;;;;;;;4.25;1.65;;;21.40;59.10;;;;;;6126058;23;20006;-67
2022/08/14 00:42:25;;;;;;;6.88;1.55;;;21.30;59.10;;;;;;6126260;23;20085;-67
2022/08/14 00:44:51;;;;;;;3.03;1.75;;;21.30;59.00;;;;;;6126188;23;20104;-67
2022/08/14 00:47:18;;;;;;;2.78;1.58;;;21.30;58.80;;;;;;6126316;23;20014;-67
2022/08/14 00:49:44;;;;;;;3.40;1.70;;;21.30;58.40;;;;;;6125799;23;20414;-67
2022/08/14 00:52:12;;;;;;;2.65;1.90;;;21.20;58.50;;;;;;6125868;23;20005;-67
2022/08/14 00:54:38;;;;;;;2.13;1.70;;;21.30;58.70;;;;;;6125914;23;20036;-67
2022/08/14 00:57:04;;;;;;;2.33;1.67;;;21.30;58.90;;;;;;6125730;23;20006;-67
2022/08/14 00:59:30;;;;;;;3.70;1.70;;;21.20;59.30;;;;;;6122420;23;20510;-67
2022/08/14 01:01:58;;;;;;;1.85;1.40;;;21.20;59.40;;;;;;6122833;23;20045;-66
2022/08/14 01:04:27;;;;;;;3.85;2.10;;;21.20;59.20;;;;;;6123657;23;20018;-67
2022/08/14 01:06:53;;;;;;;4.22;1.58;;;21.10;59.00;;;;;;6126715;23;20029;-67
2022/08/14 01:09:22;;;;;;;3.42;1.70;;;21.10;58.80;;;;;;6127718;23;20137;-67
2022/08/14 01:11:49;;;;;;;5.88;1.70;;;21.10;58.90;;;;;;6127633;23;20440;-66
2022/08/14 01:14:16;;;;;;;2.05;1.60;;;21.10;58.80;;;;;;6127629;23;20006;-67
2022/08/14 01:16:43;;;;;;;3.53;1.70;;;21.00;58.90;;;;;;6127866;23;20002;-67
2022/08/14 01:21:53;;;;;;;3.30;1.85;;;21.00;59.50;;;;;;6127511;23;20080;-67
2022/08/14 01:24:22;;;;;;;2.35;1.73;;;21.00;59.70;;;;;;6128042;23;20085;-67
2022/08/14 01:26:47;;;;;;;4.32;1.70;;;20.90;59.50;;;;;;6127561;23;20028;-67
2022/08/14 01:29:14;;;;;;;2.15;1.60;;;20.90;59.60;;;;;;6127116;23;19998;-67
2022/08/14 01:31:51;;;;;;;2.88;1.90;;;20.90;59.80;;;;;;6127647;23;20010;-66
2022/08/14 01:34:19;;;;;;;5.95;1.85;;;20.90;59.70;;;;;;6127638;23;20013;-67
2022/08/14 01:36:46;;;;;;;3.33;1.50;;;20.90;59.70;;;;;;6127163;23;20014;-66
2022/08/14 01:39:14;;;;;;;2.45;1.52;;;20.90;59.70;;;;;;6127369;23;20299;-67
2022/08/14 01:41:48;;;;;;;2.50;1.70;;;20.90;59.70;;;;;;6127520;23;20006;-67
2022/08/14 01:44:15;;;;;;;3.13;1.70;;;20.80;59.90;;;;;;6127931;23;20089;-67
2022/08/14 01:46:43;;;;;;;2.67;1.75;;;20.80;59.70;;;;;;6127371;23;20002;-67
2022/08/14 01:49:14;;;;;;;1.75;1.50;;;20.80;59.70;;;;;;6127587;23;20006;-66
2022/08/14 01:51:42;;;;;;;2.92;1.60;;;20.80;59.70;;;;;;6127646;23;20014;-67
2022/08/14 01:54:19;;;;;;;2.40;1.50;;;20.80;59.60;;;;;;6127612;23;20006;-67
2022/08/14 01:56:45;;;;;;;3.78;1.70;;;20.70;59.60;;;;;;6127172;23;20044;-67
2022/08/14 01:59:20;;;;;;;3.80;1.65;;;20.80;59.70;;;;;;6127159;23;20053;-67
2022/08/14 02:01:51;;;;;;;3.28;1.83;;;20.70;59.60;;;;;;6127415;23;20013;-67
2022/08/14 02:04:22;;;;;;;2.80;1.70;;;20.70;59.90;;;;;;6127293;23;20014;-66
2022/08/14 02:06:51;;;;;;;2.15;1.60;;;20.70;60.10;;;;;;6127684;23;20014;-66
2022/08/14 02:09:18;;;;;;;3.67;1.83;;;20.70;60.20;;;;;;6127137;23;20001;-68
2022/08/14 02:11:45;;;;;;;3.42;2.00;;;20.70;60.30;;;;;;6127251;23;20016;-69
2022/08/14 02:14:13;;;;;;;3.03;1.92;;;20.70;60.40;;;;;;6127359;23;20310;-66
2022/08/14 02:16:44;;;;;;;4.00;1.80;;;20.60;60.40;;;;;;6127363;23;20009;-68
2022/08/14 02:19:16;;;;;;;9.85;2.47;;;20.60;60.40;;;;;;6127544;23;20010;-67
2022/08/14 02:21:44;;;;;;;2.03;1.48;;;20.60;60.60;;;;;;6126820;23;20006;-67
2022/08/14 02:24:12;;;;;;;2.80;1.75;;;20.60;60.40;;;;;;6126976;23;20009;-67
2022/08/14 02:26:40;;;;;;;2.10;1.63;;;20.60;60.30;;;;;;6127319;23;20437;-67
2022/08/14 02:29:11;;;;;;;2.33;1.63;;;20.60;60.40;;;;;;6127347;23;20325;-67
2022/08/14 02:31:40;;;;;;;2.65;2.10;;;20.60;60.60;;;;;;6127273;23;20010;-78
2022/08/14 02:34:17;;;;;;;2.45;1.63;;;20.60;60.50;;;;;;6126932;23;20009;-74
2022/08/14 02:36:44;;;;;;;2.22;1.63;;;20.60;60.20;;;;;;6127013;23;20049;-66
2022/08/14 02:39:11;;;;;;;2.83;1.80;;;20.50;60.10;;;;;;6126926;23;20377;-67
2022/08/14 02:41:37;;;;;;;2.60;1.73;;;20.50;60.00;;;;;;6126587;23;20013;-74
2022/08/14 02:44:05;;;;;;;2.03;1.70;;;20.50;60.10;;;;;;6127366;23;20062;-67
2022/08/14 02:46:31;;;;;;;3.55;1.65;;;20.50;60.00;;;;;;6126947;23;20337;-66
2022/08/14 02:48:57;;;;;;;6.53;2.00;;;20.50;59.70;;;;;;6126607;23;20093;-67
2022/08/14 02:51:23;;;;;;;3.03;1.80;;;20.50;59.80;;;;;;6126602;23;20041;-67
2022/08/14 02:53:49;;;;;;;3.75;1.70;;;20.50;59.90;;;;;;6126924;23;19998;-67
2022/08/14 02:56:18;;;;;;;2.20;1.73;;;20.50;59.80;;;;;;6126836;23;20013;-67
2022/08/14 02:58:46;;;;;;;2.00;1.80;;;20.50;59.70;;;;;;6126891;23;20073;-67
2022/08/14 03:01:14;;;;;;;4.90;1.90;;;20.50;60.20;;;;;;6126727;23;20504;-68
2022/08/14 03:03:40;;;;;;;4.60;1.60;;;20.50;60.60;;;;;;6126565;23;20009;-78
2022/08/14 03:06:07;;;;;;;3.38;1.85;;;20.40;60.80;;;;;;6126710;23;20096;-67
2022/08/14 03:08:34;;;;;;;3.13;1.65;;;20.40;61.10;;;;;;6126621;23;20370;-67
2022/08/14 03:11:05;;;;;;;2.17;1.58;;;20.40;61.30;;;;;;6127088;23;20022;-67
2022/08/14 03:13:34;;;;;;;6.32;2.10;;;20.40;61.40;;;;;;6127134;23;20362;-67
2022/08/14 03:16:05;;;;;;;2.85;1.63;;;20.30;61.30;;;;;;6126927;23;20341;-66
2022/08/14 03:18:31;;;;;;;5.28;1.90;;;20.30;61.70;;;;;;6126701;23;20381;-66
2022/08/14 03:20:58;;;;;;;2.47;1.73;;;20.30;62.00;;;;;;6126735;23;20046;-67
2022/08/14 03:23:24;;;;;;;1.90;1.70;;;20.20;62.20;;;;;;6126771;23;20314;-77
2022/08/14 03:25:50;;;;;;;2.67;1.73;;;20.20;62.40;;;;;;6126973;23;20069;-67
2022/08/14 03:28:15;;;;;;;2.85;2.00;;;20.20;62.40;;;;;;6126482;23;20037;-67
2022/08/14 03:30:41;;;;;;;4.25;1.88;;;20.10;62.40;;;;;;6126570;23;20021;-67
2022/08/14 03:33:10;;;;;;;4.80;1.88;;;20.10;62.30;;;;;;6126832;23;20010;-67
2022/08/14 03:35:35;;;;;;;4.18;1.73;;;20.00;62.50;;;;;;6126329;23;20013;-66
2022/08/14 03:38:09;;;;;;;2.78;1.85;;;20.00;62.90;;;;;;6126921;23;20081;-67
2022/08/14 03:40:37;;;;;;;7.10;1.88;;;20.00;62.80;;;;;;6126389;23;20005;-67
2022/08/14 03:43:04;;;;;;;2.67;1.77;;;20.00;62.80;;;;;;6126291;23;20056;-67
2022/08/14 03:45:32;;;;;;;2.50;1.90;;;20.00;62.90;;;;;;6126379;23;20014;-66
2022/08/14 03:47:59;;;;;;;2.40;1.80;;;20.00;63.00;;;;;;6126579;23;20062;-66
2022/08/14 03:50:27;;;;;;;4.68;2.00;;;20.00;63.10;;;;;;6125630;23;20018;-68
2022/08/14 03:52:53;;;;;;;3.67;1.88;;;20.00;63.20;;;;;;6126314;23;20165;-68
2022/08/14 03:55:18;;;;;;;2.17;1.80;;;20.00;63.30;;;;;;6126281;23;20002;-68
2022/08/14 03:57:44;;;;;;;2.95;1.92;;;20.00;63.30;;;;;;6126471;23;20432;-67
2022/08/14 04:00:12;;;;;;;2.30;1.80;;;20.00;63.10;;;;;;6126581;23;20061;-68
2022/08/14 04:02:39;;;;;;;6.28;1.80;;;20.00;63.10;;;;;;6126238;23;20019;-68
2022/08/14 04:05:07;;;;;;;3.00;1.85;;;20.00;63.10;;;;;;6126107;23;20061;-67
2022/08/14 04:07:33;;;;;;;4.78;1.85;;;19.90;63.30;;;;;;6126535;23;20006;-67
2022/08/14 04:10:00;;;;;;;3.38;2.20;;;19.90;63.50;;;;;;6126211;23;20020;-67
2022/08/14 04:12:26;;;;;;;3.90;1.73;;;19.90;63.50;;;;;;6126365;23;20009;-67
2022/08/14 04:14:52;;;;;;;1.70;1.60;;;19.90;63.20;;;;;;6126376;23;20002;-67
2022/08/14 04:17:18;;;;;;;3.28;1.85;;;19.90;63.10;;;;;;6126460;23;20013;-66
2022/08/14 04:19:45;;;;;;;3.30;1.70;;;19.80;63.00;;;;;;6126593;23;20068;-66
2022/08/14 04:22:12;;;;;;;2.55;1.52;;;19.80;63.20;;;;;;6126342;23;20377;-65
2022/08/14 04:24:38;;;;;;;3.80;2.13;;;19.80;63.50;;;;;;6125953;23;20002;-72
2022/08/14 04:27:07;;;;;;;4.20;2.15;;;19.80;63.70;;;;;;6126466;23;20014;-67
2022/08/14 04:29:39;;;;;;;4.63;1.80;;;19.80;63.90;;;;;;6126368;23;20123;-66
2022/08/14 04:32:07;;;;;;;3.85;1.63;;;19.80;64.10;;;;;;6126306;23;20006;-70
2022/08/14 04:34:35;;;;;;;4.68;1.67;;;19.70;64.20;;;;;;6126007;23;20081;-66
2022/08/14 04:45:14;;;;;;;3.60;2.67;;;19.70;64.40;;;;;;6128181;23;20013;-66
2022/08/14 04:50:24;;;;;;;6.47;2.40;;;19.70;64.80;;;;;;6128118;23;20045;-67
2022/08/14 04:52:50;;;;;;;3.72;1.80;;;19.70;64.60;;;;;;6127829;23;20417;-75
2022/08/14 04:55:15;;;;;;;5.28;2.00;;;19.70;64.70;;;;;;6127845;23;20421;-67
2022/08/14 04:57:41;;;;;;;2.72;1.60;;;19.70;64.60;;;;;;6127955;23;19998;-66
2022/08/14 05:00:07;;;;;;;5.20;1.80;;;19.70;64.80;;;;;;6128084;23;20005;-67
2022/08/14 05:02:34;;;;;;;4.00;1.90;;;19.70;65.00;;;;;;6127840;23;20029;-68
2022/08/14 05:04:59;;;;;;;2.78;1.88;;;19.80;64.90;;;;;;6127616;23;20021;-66
2022/08/14 05:07:25;;;;;;;6.97;1.88;;;19.80;64.70;;;;;;6128124;23;20006;-68
2022/08/14 05:09:51;;;;;;;3.83;1.90;;;19.80;64.60;;;;;;6127867;23;20006;-66
2022/08/14 05:12:17;;;;;;;3.97;1.88;;;19.80;64.40;;;;;;6127904;23;20017;-67
2022/08/14 05:14:43;;;;;;;3.78;1.63;;;19.80;64.50;;;;;;6127660;23;20002;-68
2022/08/14 05:17:10;;;;;;;1.75;1.60;;;19.80;64.60;;;;;;6127828;23;20053;-66
2022/08/14 05:19:36;;;;;;;2.50;1.70;;;19.90;64.40;;;;;;6127235;23;20069;-68
2022/08/14 05:22:02;;;;;;;2.85;1.65;;;19.90;64.20;;;;;;6127737;23;20001;-68
2022/08/14 05:24:28;;;;;;;4.43;2.10;;;19.90;64.10;;;;;;6127804;23;20006;-72
2022/08/14 05:26:54;;;;;;;5.95;1.65;;;20.00;64.30;;;;;;6127701;23;20430;-66
2022/08/14 05:29:20;;;;;;;5.82;2.00;;;20.00;64.50;;;;;;6127583;23;20002;-66
2022/08/14 05:31:45;;;;;;;5.82;1.80;;;20.00;64.70;;;;;;6127352;23;20318;-67
2022/08/14 05:34:11;;;;;;;2.67;1.98;;;20.00;64.50;;;;;;6127701;23;20002;-72
2022/08/14 05:36:37;;;;;;;6.32;2.08;;;20.00;64.40;;;;;;6127353;23;20006;-71
2022/08/14 05:39:05;;;;;;;4.97;2.40;;;20.00;64.30;;;;;;6127821;23;20006;-69
2022/08/14 05:41:31;;;;;;;4.97;2.00;;;20.00;64.30;;;;;;6127661;23;20010;-67
2022/08/14 05:43:57;;;;;;;6.75;2.25;;;20.00;64.30;;;;;;6127299;23;20017;-67
2022/08/14 05:46:23;;;;;;;3.70;1.92;;;20.00;64.80;;;;;;6126841;23;20017;-67
2022/08/14 05:48:52;;;;;;;2.58;1.63;;;20.00;65.00;;;;;;6127074;23;20077;-66
2022/08/14 05:51:17;;;;;;;4.82;2.53;;;20.00;65.10;;;;;;6126828;23;20014;-67
2022/08/14 05:53:43;;;;;;;3.72;2.08;;;20.00;64.80;;;;;;6127324;23;20085;-67
2022/08/14 05:56:09;;;;;;;4.28;1.92;;;20.00;64.90;;;;;;6127169;23;20002;-71
2022/08/14 05:58:35;;;;;;;3.95;2.15;;;20.10;65.10;;;;;;6127146;23;20409;-66
2022/08/14 06:01:00;;;;;;;2.22;1.90;;;20.10;65.30;;;;;;6127222;23;20028;-66
2022/08/14 06:03:26;;;;;;;3.80;1.73;;;20.10;65.00;;;;;;6127341;23;19998;-67
2022/08/14 06:05:55;;;;;;;3.95;1.80;;;20.20;64.90;;;;;;6126971;23;20156;-67
2022/08/14 06:08:29;;;;;;;6.30;1.60;;;20.30;65.10;;;;;;6127418;23;20010;-67
2022/08/14 06:11:04;;;;;;;3.30;1.60;;;20.40;64.80;;;;;;6127577;23;20014;-67
2022/08/14 06:13:32;;;;;;;4.65;1.50;;;20.40;64.50;;;;;;6127729;23;20014;-67
2022/08/14 06:15:58;;;;;;;2.53;1.65;;;20.50;64.20;;;;;;6126993;23;20057;-67
2022/08/14 06:18:24;;;;;;;5.32;2.08;;;20.50;63.90;;;;;;6127493;23;20014;-67
2022/08/14 06:20:49;;;;;;;2.38;1.50;;;20.60;63.70;;;;;;6126800;23;19998;-67
2022/08/14 06:23:16;;;;;;;3.55;1.73;;;20.70;63.20;;;;;;6126968;23;20002;-68
2022/08/14 06:25:43;;;;;;;3.95;1.52;;;20.70;63.00;;;;;;6126687;23;19998;-65
2022/08/14 06:28:18;;;;;;;3.20;1.73;;;20.80;63.10;;;;;;6127005;23;20014;-71
2022/08/14 06:30:45;;;;;;;4.40;1.60;;;20.80;62.70;;;;;;6123756;23;20053;-67
2022/08/14 06:33:11;;;;;;;2.90;1.70;;;20.90;62.40;;;;;;6123818;23;20524;-68
2022/08/14 06:35:37;;;;;;;2.88;1.70;;;21.00;62.20;;;;;;6124019;23;20117;-66
2022/08/14 06:38:03;;;;;;;4.43;1.70;;;21.00;61.90;;;;;;6123595;23;20033;-67
2022/08/14 06:40:34;;;;;;;3.05;1.75;;;21.10;62.00;;;;;;6123581;23;20084;-69
2022/08/14 06:43:03;;;;;;;4.97;1.70;;;21.10;62.00;;;;;;6126546;23;20006;-67
2022/08/14 06:45:29;;;;;;;2.42;1.60;;;21.20;61.30;;;;;;6127243;23;20388;-67
2022/08/14 06:47:54;;;;;;;1.80;1.50;;;21.30;60.90;;;;;;6126150;23;20532;-66
2022/08/14 06:50:22;;;;;;;1.80;1.55;;;21.30;60.70;;;;;;6123262;23;20022;-66
2022/08/14 06:52:49;;;;;;;2.60;1.40;;;21.40;60.60;;;;;;6123274;23;20081;-67
2022/08/14 06:55:19;;;;;;;5.22;1.40;;;21.50;60.40;;;;;;6126530;23;20349;-67
2022/08/14 06:57:47;;;;;;;1.73;1.38;;;21.50;60.10;;;;;;6126614;23;20006;-66
2022/08/14 07:00:21;;;;;;;3.63;1.50;;;21.60;60.10;;;;;;6126775;23;20016;-66
2022/08/14 07:08:29;;;;;;;2.90;1.73;;;21.70;59.30;;;;;;6102576;23;20013;-67
2022/08/14 07:10:57;;;;;;;4.75;1.60;;;21.80;59.20;;;;;;6126453;23;20054;-67
2022/08/14 07:13:24;;;;;;;3.90;1.60;;;21.90;59.60;;;;;;6126651;23;20064;-67
2022/08/14 07:15:53;;;;;;;2.50;1.50;;;21.90;58.80;;;;;;6126298;23;20036;-68
2022/08/14 07:18:20;;;;;;;4.28;1.80;;;21.90;58.30;;;;;;6126217;23;20077;-71
2022/08/14 07:20:46;;;;;;;3.28;1.50;;;22.00;58.10;;;;;;6126185;23;20001;-67
2022/08/14 07:23:13;;;;;;;2.90;1.88;;;22.00;58.10;;;;;;6126539;23;20006;-67
2022/08/14 07:25:41;;;;;;;4.25;1.80;;;22.10;58.20;;;;;;6125706;23;20009;-66
2022/08/14 07:28:15;;;;;;;3.85;1.60;;;22.20;58.10;;;;;;6126192;23;20393;-68
2022/08/14 07:30:41;;;;;;;3.30;1.85;;;22.30;57.90;;;;;;6126284;23;20010;-67
2022/08/14 07:33:07;;;;;;;3.40;1.80;;;22.30;57.70;;;;;;6126268;23;20033;-67
2022/08/14 07:35:35;;;;;;;2.30;1.50;;;22.40;57.70;;;;;;6126238;23;20441;-67
2022/08/14 07:38:01;;;;;;;4.55;1.70;;;22.40;57.80;;;;;;6126286;23;20023;-66
2022/08/14 07:40:26;;;;;;;6.40;1.80;;;22.50;57.80;;;;;;6126389;23;20069;-66
2022/08/14 07:42:52;;;;;;;5.60;2.17;;;22.60;57.50;;;;;;6126094;23;20013;-66
2022/08/14 07:45:18;;;;;;;3.10;1.60;;;22.60;57.00;;;;;;6126335;23;20072;-66
2022/08/14 07:47:44;;;;;;;3.00;1.65;;;22.60;56.80;;;;;;6126258;23;19998;-66
2022/08/14 07:50:13;;;;;;;5.55;1.48;;;22.70;56.80;;;;;;6126131;23;20021;-67
2022/08/14 07:52:40;;;;;;;5.80;1.75;;;22.80;57.10;;;;;;6126203;23;20001;-67
2022/08/14 07:55:08;;;;;;;6.15;1.80;;;22.80;57.20;;;;;;6126331;23;20009;-66
2022/08/14 07:57:34;;;;;;;2.92;1.98;;;22.90;57.30;;;;;;6125970;23;20012;-69
2022/08/14 08:00:00;;;;;;;2.25;1.90;;;23.00;56.90;;;;;;6125665;23;20002;-68
2022/08/14 08:02:30;;;;;;;3.65;1.77;;;23.00;56.60;;;;;;6126110;23;20089;-67
2022/08/14 08:04:59;;;;;;;4.93;1.90;;;23.10;56.50;;;;;;6126159;23;20014;-67
2022/08/14 08:07:26;;;;;;;5.80;1.75;;;23.10;56.40;;;;;;6126487;23;20002;-67
2022/08/14 08:09:55;;;;;;;3.60;1.63;;;23.30;56.30;;;;;;6126191;23;20045;-67
2022/08/14 08:12:21;;;;;;;5.28;2.00;;;23.30;56.00;;;;;;6126026;23;20068;-68
2022/08/14 08:14:49;;;;;;;8.50;2.00;;;23.40;56.20;;;;;;6124882;23;20006;-68
2022/08/14 08:17:21;;;;;;;5.15;1.75;;;23.40;56.10;;;;;;6125756;23;20013;-67
2022/08/14 08:19:47;;;;;;;3.28;1.63;;;23.50;55.90;;;;;;6125521;23;20013;-67
2022/08/14 08:22:13;;;;;;;5.60;1.95;;;23.60;55.90;;;;;;6125744;23;20014;-68
2022/08/14 08:24:39;;;;;;;3.08;1.77;;;23.60;55.90;;;;;;6125699;23;20002;-73
2022/08/14 08:27:21;;;;;;;4.10;1.50;;;23.70;55.80;;;;;;6125777;23;20012;-68
2022/08/14 08:29:46;;;;;;;3.83;1.77;;;23.80;55.60;;;;;;6126174;23;20380;-67
2022/08/14 08:32:12;;;;;;;5.05;1.90;;;23.90;55.10;;;;;;6126249;23;20092;-67
2022/08/14 08:34:45;;;;;;;2.35;1.38;;;23.90;54.90;;;;;;6126053;23;20026;-68
2022/08/14 08:37:12;;;;;;;3.55;1.85;;;24.00;54.90;;;;;;6126364;23;20006;-68
2022/08/14 08:39:45;;;;;;;7.80;1.88;;;24.00;55.00;;;;;;6126269;23;20480;-67
2022/08/14 08:42:10;;;;;;;4.70;1.75;;;24.10;54.30;;;;;;6126070;23;20006;-67
2022/08/14 08:44:36;;;;;;;4.25;1.88;;;24.20;54.20;;;;;;6126454;23;20013;-67
2022/08/14 08:47:04;;;;;;;2.95;1.98;;;24.20;54.00;;;;;;6126207;23;20077;-67
2022/08/14 08:49:41;;;;;;;3.28;1.60;;;24.30;53.90;;;;;;6125905;23;20463;-67
2022/08/14 08:52:07;;;;;;;2.65;1.70;;;24.30;54.30;;;;;;6126434;23;20037;-67
2022/08/14 08:54:33;;;;;;;3.63;1.67;;;24.40;54.40;;;;;;6126547;23;20010;-67
2022/08/14 08:56:59;;;;;;;2.67;1.52;;;24.50;54.30;;;;;;6126054;23;20073;-68
2022/08/14 08:59:30;;;;;;;5.55;1.75;;;24.60;54.00;;;;;;6126354;23;20310;-68
2022/08/14 09:01:57;;;;;;;8.23;1.70;;;24.60;53.90;;;;;;6126265;23;20013;-67
2022/08/14 09:04:43;;;;;;;2.35;1.60;;;24.70;53.80;;;;;;6125820;23;20053;-68
2022/08/14 09:07:10;;;;;;;5.25;1.65;;;24.80;53.60;;;;;;6125752;23;20449;-68
2022/08/14 09:09:50;;;;;;;5.97;1.67;;;24.80;53.30;;;;;;6126235;23;20017;-68
2022/08/14 09:12:16;;;;;;;5.75;1.90;;;24.90;53.50;;;;;;6125822;23;20006;-70
2022/08/14 09:14:42;;;;;;;3.90;1.73;;;25.00;53.50;;;;;;6125802;23;20076;-68
2022/08/14 09:17:09;;;;;;;4.90;1.60;;;25.10;53.40;;;;;;6126213;23;20006;-74
2022/08/14 09:19:38;;;;;;;2.55;1.40;;;25.10;53.10;;;;;;6126417;23;20401;-70
2022/08/14 09:22:05;;;;;;;1.58;1.45;;;25.20;52.80;;;;;;6125742;23;20010;-68
2022/08/14 09:24:31;;;;;;;4.30;1.35;;;25.30;52.90;;;;;;6126019;23;20069;-68
2022/08/14 09:26:57;;;;;;;4.10;1.63;;;25.40;52.90;;;;;;6126085;23;20002;-67
2022/08/14 09:29:23;;;;;;;5.78;1.63;;;25.40;53.00;;;;;;6128317;23;20006;-68
2022/08/14 09:31:53;;;;;;;3.42;1.65;;;25.60;53.20;;;;;;6128335;23;20090;-68
2022/08/14 09:34:29;;;;;;;3.83;1.48;;;25.60;53.50;;;;;;6128546;23;20002;-68
2022/08/14 09:37:27;;;;;;;4.05;1.77;;;25.70;53.50;;;;;;6127985;23;20009;-67
2022/08/14 09:40:16;;;;;;;5.15;1.65;;;25.80;53.20;;;;;;6112023;23;20006;-69
2022/08/14 09:42:54;;;;;;;3.72;1.55;;;25.90;53.00;;;;;;6127794;23;20013;-68
2022/08/14 09:45:32;;;;;;;4.43;1.45;;;26.00;53.30;;;;;;6127563;23;20333;-67
2022/08/14 09:47:58;;;;;;;2.67;1.50;;;26.00;53.20;;;;;;6127731;23;20032;-68
2022/08/14 09:50:30;;;;;;;4.88;1.85;;;26.10;53.20;;;;;;6127622;23;20014;-67
2022/08/14 09:52:55;;;;;;;;;;;26.20;53.20;;;;;;6128053;23;20006;-68
2022/08/14 09:55:23;;;;;;;2.70;1.40;;;26.20;53.00;;;;;;6127718;23;19955;-68
2022/08/14 09:57:50;;;;;;;3.85;1.65;;;26.30;53.00;;;;;;6127331;23;20002;-67
2022/08/14 10:00:18;;;;;;;6.45;1.60;;;26.30;52.90;;;;;;6127728;23;20010;-68
2022/08/14 10:03:01;;;;;;;5.65;1.63;;;26.40;53.00;;;;;;6127763;23;20025;-68
2022/08/14 10:05:37;;;;;;;3.67;1.63;;;26.50;52.70;;;;;;6127583;23;20025;-67
2022/08/14 10:08:15;;;;;;;9.05;1.52;;;26.60;52.00;;;;;;6127575;23;20434;-70
2022/08/14 10:10:40;;;;;;;4.63;1.70;;;26.60;51.80;;;;;;6127230;23;20383;-68
2022/08/14 10:13:19;;;;;;;5.88;1.52;;;26.70;52.10;;;;;;6127427;23;19997;-68
2022/08/14 10:15:48;;;;;;;5.72;1.50;;;26.80;52.00;;;;;;6127608;23;20074;-74
2022/08/14 10:18:16;;;;;;;4.05;1.60;;;26.80;51.80;;;;;;6127003;23;20024;-68
2022/08/14 10:20:56;;;;;;;11.50;1.52;;;26.90;52.00;;;;;;6127246;23;20009;-67
2022/08/14 10:23:25;;;;;;;2.92;1.70;;;26.90;52.20;;;;;;6127400;23;20009;-67
2022/08/14 10:26:03;;;;;;;5.47;1.60;;;27.00;52.00;;;;;;6127240;23;20022;-68
2022/08/14 10:28:40;;;;;;;2.45;1.40;;;27.00;51.90;;;;;;6127360;23;20057;-67
2022/08/14 10:31:28;;;;;;;3.67;1.90;;;27.10;52.10;;;;;;6127216;23;20010;-68
2022/08/14 10:34:04;;;;;;;3.00;1.50;;;27.20;51.30;;;;;;6127414;23;20010;-68
2022/08/14 10:36:35;;;;;;;7.78;1.50;;;27.20;51.30;;;;;;6127185;23;20001;-68
2022/08/14 10:39:18;;;;;;;6.25;1.48;;;27.30;51.00;;;;;;6126386;23;20009;-67
2022/08/14 10:41:45;;;;;;;6.85;1.67;;;27.30;50.80;;;;;;6127249;23;20448;-68
2022/08/14 10:44:15;;;;;;;8.20;1.45;;;27.40;50.50;;;;;;6127475;23;20085;-67
2022/08/14 10:46:42;;;;;;;3.65;1.50;;;27.40;50.30;;;;;;6127456;23;20064;-68
2022/08/14 10:49:17;;;;;;;4.15;1.73;;;27.50;50.50;;;;;;6127043;23;20006;-68
2022/08/14 10:52:07;;;;;;;5.35;1.40;;;27.50;50.40;;;;;;6127108;23;20010;-68
2022/08/14 10:54:34;;;;;;;2.75;1.50;;;27.50;50.30;;;;;;6126947;23;19998;-68
2022/08/14 10:57:21;;;;;;;10.45;1.95;;;27.60;50.70;;;;;;6127066;23;20077;-67
2022/08/14 10:59:51;;;;;;;4.45;1.90;;;27.60;50.40;;;;;;6122952;23;20460;-67
2022/08/14 11:02:27;;;;;;;6.07;1.65;;;27.60;50.10;;;;;;6123640;23;20006;-68
2022/08/14 11:05:02;;;;;;;3.63;1.50;;;27.60;50.20;;;;;;6126482;23;20037;-68
2022/08/14 11:07:28;;;;;;;4.88;1.42;;;27.70;50.30;;;;;;6127312;23;20427;-68
2022/08/14 11:10:03;;;;;;;11.10;1.70;;;27.80;50.50;;;;;;6126896;23;20133;-67
2022/08/14 11:13:05;;;;;;;2.92;1.40;;;27.80;50.00;;;;;;6127204;23;20017;-67
2022/08/14 11:15:32;;;;;;;4.32;1.33;;;27.90;49.70;;;;;;6009038;23;20051;-67
2022/08/14 11:17:58;;;;;;;4.15;1.50;;;27.90;49.10;;;;;;6103562;23;20014;-67
2022/08/14 11:20:26;;;;;;;5.45;1.50;;;28.00;48.30;;;;;;6126609;23;20418;-75
2022/08/14 11:22:54;;;;;;;6.78;1.40;;;28.00;48.10;;;;;;6125534;23;20014;-68
2022/08/14 11:25:25;;;;;;;2.83;1.33;;;28.00;48.60;;;;;;6123372;23;20438;-67
2022/08/14 11:27:53;;;;;;;6.13;1.60;;;28.10;48.50;;;;;;6123681;23;20310;-67
2022/08/14 11:30:25;;;;;;;4.93;1.50;;;28.20;48.30;;;;;;6124972;23;20006;-67
2022/08/14 11:32:53;;;;;;;6.90;1.77;;;28.20;47.90;;;;;;6126869;23;20010;-67
2022/08/14 11:35:28;;;;;;;2.22;1.50;;;28.30;47.60;;;;;;6126506;23;19998;-68
2022/08/14 11:38:01;;;;;;;4.03;1.40;;;28.40;47.60;;;;;;6126017;23;20012;-68
2022/08/14 11:40:33;;;;;;;1.95;1.40;;;28.40;47.30;;;;;;6126777;23;20016;-67
2022/08/14 11:43:00;;;;;;;5.03;1.10;;;28.50;47.20;;;;;;6127052;23;20036;-67
2022/08/14 11:45:37;;;;;;;2.35;1.30;;;28.40;43.40;;;;;;6126031;23;20492;-67
2022/08/14 11:48:19;;;;;;;5.57;1.30;;;28.50;43.70;;;;;;6126411;23;20002;-68
2022/08/14 11:50:47;;;;;;;2.53;1.40;;;28.50;44.30;;;;;;6125687;23;20449;-68
2022/08/14 11:53:30;;;;;;;4.45;1.30;;;28.50;44.80;;;;;;6126300;23;20085;-67
2022/08/14 11:56:04;;;;;;;4.15;1.25;;;28.50;45.00;;;;;;6126450;23;20009;-68
2022/08/14 11:58:32;;;;;;;7.53;1.50;;;28.60;45.70;;;;;;6100428;23;20350;-67
2022/08/14 12:01:01;;;;;;;6.47;1.27;;;28.60;46.00;;;;;;6125615;23;20366;-67
2022/08/14 12:03:44;;;;;;;4.68;1.48;;;28.70;45.90;;;;;;6126131;23;20006;-68
2022/08/14 12:06:19;;;;;;;4.72;1.20;;;28.70;46.30;;;;;;6126367;23;20057;-67
2022/08/14 12:08:52;;;;;;;2.60;1.50;;;28.70;46.30;;;;;;6126395;23;20013;-67
2022/08/14 12:11:18;;;;;;;3.72;1.40;;;28.80;46.20;;;;;;6126004;23;20092;-67
2022/08/14 12:13:44;;;;;;;2.63;1.40;;;28.80;45.50;;;;;;6126343;23;20002;-67
2022/08/14 12:16:12;;;;;;;2.10;1.40;;;28.80;44.60;;;;;;6126692;23;20036;-76
2022/08/14 12:18:40;;;;;;;5.78;2.03;;;28.80;44.80;;;;;;6126556;23;20325;-68
2022/08/14 12:21:25;;;;;;;3.50;1.60;;;28.80;45.20;;;;;;6126330;23;20009;-67
2022/08/14 12:24:04;;;;;;;2.58;1.40;;;28.90;45.30;;;;;;6126560;23;20084;-67
2022/08/14 12:26:30;;;;;;;7.13;1.45;;;28.90;46.30;;;;;;6126596;23;20433;-67
2022/08/14 12:29:13;;;;;;;7.90;1.50;;;28.90;45.00;;;;;;6126186;23;20013;-67
2022/08/14 12:31:48;;;;;;;3.10;1.98;;;29.00;43.60;;;;;;6126216;23;20541;-67
2022/08/14 12:34:15;;;;;;;2.05;1.50;;;29.10;44.20;;;;;;6126257;23;20002;-68
2022/08/14 12:36:41;;;;;;;3.75;1.30;;;29.10;44.30;;;;;;6126350;23;20361;-67
2022/08/14 12:39:23;;;;;;;8.57;1.40;;;29.10;44.60;;;;;;6126384;23;20002;-67
2022/08/14 12:42:05;;;;;;;4.68;1.35;;;29.10;44.40;;;;;;6126210;23;19998;-67
2022/08/14 12:44:36;;;;;;;2.38;1.30;;;29.20;43.60;;;;;;6125873;23;20422;-67
2022/08/14 12:47:13;;;;;;;3.47;1.52;;;29.20;42.10;;;;;;6126315;23;20002;-67
2022/08/14 12:49:51;;;;;;;4.25;1.40;;;29.30;42.60;;;;;;6126452;23;20010;-67
2022/08/14 12:52:26;;;;;;;3.00;1.48;;;29.30;43.40;;;;;;6126510;23;20010;-68
2022/08/14 12:55:05;;;;;;;5.55;1.30;;;29.40;43.10;;;;;;6126433;23;20037;-68
2022/08/14 12:57:42;;;;;;;5.57;2.00;;;29.40;40.60;;;;;;6126167;23;20009;-67
2022/08/14 13:00:19;;;;;;;6.45;1.50;;;29.50;41.70;;;;;;6126209;23;20016;-68
2022/08/14 13:02:49;;;;;;;4.30;1.40;;;29.50;43.00;;;;;;6126920;23;20493;-67
2022/08/14 13:05:15;;;;;;;7.65;2.92;;;29.50;42.60;;;;;;6128016;23;20105;-67
2022/08/14 13:07:42;;;;;;;3.78;1.30;;;29.60;43.60;;;;;;6127930;23;20030;-68
2022/08/14 13:10:13;;;;;;;4.03;1.35;;;29.50;43.80;;;;;;6128160;23;20032;-67
2022/08/14 13:12:40;;;;;;;7.03;1.60;;;29.60;43.20;;;;;;6128459;23;20009;-67
2022/08/14 13:15:09;;;;;;;5.00;1.50;;;29.60;42.70;;;;;;6128552;23;20002;-67
2022/08/14 13:17:52;;;;;;;4.53;1.73;;;29.60;42.30;;;;;;6128085;23;20069;-67